Time;durP1;ratioP1;P1;durP2;ratioP2;P2;SDS_P1;SDS_P2;PMS_P1;PMS_P2;Temp;Humidity;BMP_temperature;BMP_pressure;BME280_temperature;BME280_humidity;BME280_pressure;Samples;Min_cycle;Max_cycle;Signal;HPM_P1;HPM_P2
2023/02/10 00:01:35;;;;;;;18.80;6.60;;;;;;;-6.59;61.40;100570.39;105668;1260;75802;-25
2023/02/10 00:04:03;;;;;;;21.20;7.50;;;;;;;-6.63;61.61;100568.65;105439;1254;74509;-25
2023/02/10 00:06:32;;;;;;;9.30;4.60;;;;;;;-6.67;61.50;100566.73;105541;1254;61871;-24
2023/02/10 00:09:01;;;;;;;10.20;6.20;;;;;;;-6.73;61.89;100563.11;105743;1256;61651;-25
2023/02/10 00:14:18;;;;;;;11.20;6.30;;;;;;;-6.80;62.05;100559.80;105890;1256;75836;-25
2023/02/10 00:16:49;;;;;;;12.90;6.50;;;;;;;-6.83;62.67;100555.88;105669;1253;73224;-25
2023/02/10 00:19:19;;;;;;;14.10;6.60;;;;;;;-6.87;62.74;100556.16;105523;1253;61901;-26
2023/02/10 00:21:48;;;;;;;3.40;2.20;;;;;;;-6.90;62.27;100559.67;105581;1256;61840;-25
2023/02/10 00:24:17;;;;;;;7.10;3.70;;;;;;;-6.70;62.38;100553.67;105745;1254;74298;-25
2023/02/10 00:26:46;;;;;;;10.40;5.00;;;;;;;-5.83;60.34;100549.59;105766;1259;73801;-25
2023/02/10 00:29:17;;;;;;;6.80;3.80;;;;;;;-5.31;58.11;100545.80;105802;1256;73176;-25
2023/02/10 00:31:45;;;;;;;8.40;4.20;;;;;;;-5.30;57.56;100543.77;105781;1254;61192;-25
2023/02/10 00:34:15;;;;;;;7.30;3.40;;;;;;;-5.54;57.85;100537.98;105518;1254;61097;-25
2023/02/10 00:36:49;;;;;;;8.30;4.80;;;;;;;-5.78;58.60;100531.36;105569;1254;73785;-25
2023/02/10 00:39:18;;;;;;;10.40;4.50;;;;;;;-5.96;59.09;100531.54;105621;1254;75652;-25
2023/02/10 00:41:46;;;;;;;13.90;5.30;;;;;;;-6.05;59.06;100528.91;105727;1254;74015;-25
2023/02/10 00:44:15;;;;;;;5.50;4.40;;;;;;;-6.20;59.23;100526.25;105761;1254;61916;-25
2023/02/10 00:46:44;;;;;;;7.60;3.70;;;;;;;-6.36;59.43;100527.23;105512;1255;61629;-25
2023/02/10 00:49:13;;;;;;;8.80;5.20;;;;;;;-6.58;59.82;100526.64;104264;1256;1003083;-25
2023/02/10 00:51:42;;;;;;;10.60;5.70;;;;;;;-6.70;60.62;100522.78;105681;1254;75829;-25
2023/02/10 00:54:12;;;;;;;4.70;3.40;;;;;;;-6.77;60.70;100517.78;105160;1254;1003764;-25
2023/02/10 00:56:41;;;;;;;10.30;5.50;;;;;;;-6.86;61.42;100512.94;105614;1259;61207;-25
2023/02/10 00:59:12;;;;;;;9.30;6.10;;;;;;;-6.93;61.49;100513.69;105812;1256;61512;-25
2023/02/10 01:01:41;;;;;;;6.10;3.80;;;;;;;-6.99;61.67;100510.55;105691;1253;74255;-25
2023/02/10 01:04:09;;;;;;;11.90;7.30;;;;;;;-7.02;61.87;100505.97;105726;1254;74854;-25
2023/02/10 01:06:40;;;;;;;6.30;3.50;;;;;;;-7.00;61.40;100511.55;105820;1254;74551;-25
2023/02/10 01:09:08;;;;;;;3.60;2.50;;;;;;;-6.75;61.13;100506.64;105651;1259;63585;-25
2023/02/10 01:11:37;;;;;;;12.00;4.50;;;;;;;-5.87;59.39;100503.35;105896;1259;61645;-25
2023/02/10 01:14:06;;;;;;;12.50;5.90;;;;;;;-5.61;57.67;100503.74;105853;1257;73021;-25
2023/02/10 01:16:35;;;;;;;7.50;3.70;;;;;;;-5.67;57.50;100500.66;105953;1254;75510;-25
2023/02/10 01:19:04;;;;;;;13.20;5.00;;;;;;;-5.74;58.08;100500.93;105735;1259;73863;-25
2023/02/10 01:21:38;;;;;;;9.60;3.70;;;;;;;-5.97;58.16;100500.39;105835;1254;61168;-25
2023/02/10 01:24:06;;;;;;;11.10;4.20;;;;;;;-6.19;58.72;100498.84;105912;1256;61944;-25
2023/02/10 01:26:39;;;;;;;9.40;5.70;;;;;;;-6.39;59.16;100497.45;105817;1254;74585;-25
2023/02/10 01:29:08;;;;;;;10.40;5.50;;;;;;;-6.57;59.43;100490.48;105601;1257;75929;-25
2023/02/10 01:31:37;;;;;;;10.60;6.10;;;;;;;-6.69;59.73;100489.86;105899;1256;73100;-25
2023/02/10 01:34:07;;;;;;;17.40;8.80;;;;;;;-6.73;60.17;100490.30;105879;1254;61891;-27
2023/02/10 01:36:37;;;;;;;12.00;5.30;;;;;;;-6.85;60.66;100486.95;105832;1256;61643;-25
2023/02/10 01:39:08;;;;;;;9.20;6.30;;;;;;;-6.91;60.88;100484.00;105769;1254;75343;-25
2023/02/10 01:41:36;;;;;;;11.70;4.70;;;;;;;-6.96;60.90;100477.33;105889;1256;74430;-25
2023/02/10 01:44:20;;;;;;;9.40;4.80;;;;;;;-6.97;61.16;100476.65;105875;1254;74571;-25
2023/02/10 01:46:48;;;;;;;5.50;3.70;;;;;;;-7.06;61.09;100476.70;105679;1254;61491;-25
2023/02/10 01:49:19;;;;;;;12.80;4.70;;;;;;;-7.05;61.64;100477.05;105834;1257;61569;-25
2023/02/10 01:51:47;;;;;;;4.80;3.80;;;;;;;-7.01;61.17;100472.21;105578;1255;75163;-25
2023/02/10 01:54:19;;;;;;;5.70;3.30;;;;;;;-6.25;60.30;100468.52;105703;1254;76126;-25
2023/02/10 01:56:49;;;;;;;7.20;4.60;;;;;;;-5.42;58.30;100455.83;105851;1255;73863;-25
2023/02/10 01:59:17;;;;;;;4.20;3.30;;;;;;;-5.36;56.99;100449.09;105820;1254;61102;-26
2023/02/10 02:01:46;;;;;;;12.90;6.20;;;;;;;-5.57;57.23;100445.40;105613;1259;61947;-25
2023/02/10 02:04:15;;;;;;;6.10;3.40;;;;;;;-5.79;57.55;100441.19;105629;1254;75143;-25
2023/02/10 02:06:45;;;;;;;13.30;6.90;;;;;;;-5.95;57.68;100446.11;105841;1254;76020;-25
2023/02/10 02:09:15;;;;;;;11.50;4.10;;;;;;;-6.05;58.30;100443.86;105864;1256;74486;-25
2023/02/10 02:11:58;;;;;;;6.60;3.90;;;;;;;-6.25;58.81;100451.13;105818;1254;61145;-26
2023/02/10 02:14:57;;;;;;;6.10;4.10;;;;;;;-6.45;58.92;100450.92;105720;1258;61835;-25
2023/02/10 02:17:51;;;;;;;8.60;5.70;;;;;;;-6.66;59.38;100449.17;105719;1254;73308;-25
2023/02/10 02:20:42;;;;;;;9.40;5.00;;;;;;;-6.78;60.26;100451.05;105808;1256;75847;-25
2023/02/10 02:23:19;;;;;;;14.80;5.50;;;;;;;-6.89;60.40;100449.40;105669;1254;73265;-25
2023/02/10 02:26:07;;;;;;;8.60;5.20;;;;;;;-7.00;60.94;100449.59;105535;1262;61169;-25
2023/02/10 02:29:23;;;;;;;10.10;4.50;;;;;;;-7.05;61.63;100445.48;105696;1257;61650;-25
2023/02/10 02:31:59;;;;;;;5.90;3.70;;;;;;;-7.11;61.59;100437.65;105666;1254;75101;-25
2023/02/10 02:34:53;;;;;;;6.90;3.00;;;;;;;-7.10;61.72;100435.30;105620;1262;75847;-25
2023/02/10 02:37:24;;;;;;;7.40;3.70;;;;;;;-6.24;60.30;100439.95;105524;1253;73040;-25
2023/02/10 02:39:53;;;;;;;5.70;3.00;;;;;;;-5.53;58.27;100440.85;105667;1254;61068;-25
2023/02/10 02:42:31;;;;;;;8.30;4.10;;;;;;;-5.51;57.34;100440.88;105729;1254;61160;-25
2023/02/10 02:45:14;;;;;;;13.30;5.50;;;;;;;-5.68;57.38;100445.31;105602;1262;75331;-26
2023/02/10 02:48:05;;;;;;;10.70;5.70;;;;;;;-5.89;57.98;100440.08;105668;1254;75816;-25
2023/02/10 02:50:36;;;;;;;10.30;5.20;;;;;;;-6.19;58.44;100444.41;105686;1260;73912;-25
2023/02/10 02:53:09;;;;;;;6.90;4.30;;;;;;;-6.39;58.35;100443.38;105498;1254;62248;-25
2023/02/10 02:56:02;;;;;;;4.30;3.30;;;;;;;-6.58;59.04;100438.09;105251;1262;61079;-25
2023/02/10 02:58:55;;;;;;;7.00;3.80;;;;;;;-6.81;59.75;100435.47;105540;1257;75418;-25
2023/02/10 03:01:34;;;;;;;10.10;5.20;;;;;;;-6.92;60.24;100435.67;105545;1254;75906;-25
2023/02/10 03:04:03;;;;;;;13.00;5.90;;;;;;;-7.09;60.70;100431.42;105660;1257;74600;-25
2023/02/10 03:06:34;;;;;;;12.40;5.90;;;;;;;-7.25;61.54;100426.65;105655;1255;62068;-25
2023/02/10 03:09:02;;;;;;;10.10;5.90;;;;;;;-7.32;61.65;100427.58;105764;1253;61892;-25
2023/02/10 03:11:31;;;;;;;2.30;2.10;;;;;;;-7.33;60.94;100431.09;105674;1254;75146;-25
2023/02/10 03:14:00;;;;;;;5.20;3.50;;;;;;;-6.73;59.90;100430.65;105651;1259;75659;-25
2023/02/10 03:16:28;;;;;;;13.00;6.10;;;;;;;-5.98;58.19;100427.33;105652;1253;73811;-26
2023/02/10 03:18:58;;;;;;;5.50;3.20;;;;;;;-5.74;57.25;100427.67;105677;1254;61156;-26
2023/02/10 03:21:26;;;;;;;9.30;6.10;;;;;;;-5.98;56.67;100427.85;105476;1259;61561;-26
2023/02/10 03:23:55;;;;;;;9.70;5.20;;;;;;;-6.24;57.13;100425.77;105798;1257;75317;-26
2023/02/10 03:26:23;;;;;;;12.30;5.50;;;;;;;-6.53;57.65;100425.14;105934;1257;75783;-26
2023/02/10 03:28:51;;;;;;;9.50;5.50;;;;;;;-6.77;58.59;100424.20;105936;1256;72921;-26
2023/02/10 03:31:20;;;;;;;6.50;4.60;;;;;;;-6.96;59.08;100430.06;105930;1256;61189;-26
2023/02/10 03:33:48;;;;;;;10.40;5.90;;;;;;;-7.13;59.74;100427.83;105911;1257;61655;-26
2023/02/10 03:36:18;;;;;;;10.10;6.00;;;;;;;-7.34;60.33;100428.73;105938;1255;75387;-26
2023/02/10 03:38:48;;;;;;;15.70;7.50;;;;;;;-7.50;60.72;100423.44;105936;1254;75456;-26
2023/02/10 03:41:17;;;;;;;9.50;5.20;;;;;;;-7.57;60.91;100421.48;105898;1256;73819;-26
2023/02/10 03:43:49;;;;;;;12.30;5.70;;;;;;;-7.46;61.38;100426.35;105799;1256;63296;-26
2023/02/10 03:46:19;;;;;;;13.70;4.90;;;;;;;-6.64;59.54;100426.35;105800;1257;61813;-26
2023/02/10 03:48:48;;;;;;;11.40;5.70;;;;;;;-6.25;57.99;100422.04;105677;1254;75380;-26
2023/02/10 03:51:16;;;;;;;14.20;7.10;;;;;;;-6.31;57.97;100420.29;105898;1254;75812;-26
2023/02/10 03:53:45;;;;;;;17.20;6.80;;;;;;;-6.58;58.04;100414.77;105752;1257;74123;-26
2023/02/10 03:56:14;;;;;;;12.00;6.80;;;;;;;-6.87;59.16;100407.04;105954;1254;60993;-26
2023/02/10 03:58:42;;;;;;;10.30;6.10;;;;;;;-7.28;59.32;100403.48;105826;1257;61892;-26
2023/02/10 04:01:14;;;;;;;11.00;5.90;;;;;;;-7.45;60.21;100405.28;105768;1254;75876;-26
2023/02/10 04:03:43;;;;;;;9.40;5.40;;;;;;;-7.66;60.54;100404.83;105675;1255;74658;-26
2023/02/10 04:06:13;;;;;;;14.20;5.40;;;;;;;-7.78;60.95;100404.48;105718;1254;74326;-26
2023/02/10 04:08:41;;;;;;;9.50;6.20;;;;;;;-7.92;61.33;100396.84;105914;1255;61852;-26
2023/02/10 04:11:30;;;;;;;11.30;5.70;;;;;;;-7.59;61.32;100395.30;105801;1257;62643;-26
2023/02/10 04:13:59;;;;;;;11.80;6.80;;;;;;;-6.84;59.55;100395.76;105880;1254;75367;-26
2023/02/10 04:16:29;;;;;;;12.60;6.20;;;;;;;-6.63;58.62;100393.95;105907;1255;75903;-26
2023/02/10 04:18:58;;;;;;;9.70;4.70;;;;;;;-6.88;58.71;100395.19;105888;1259;74092;-26
2023/02/10 04:21:26;;;;;;;12.80;6.40;;;;;;;-7.16;59.79;100393.86;105907;1255;61110;-26
2023/02/10 04:31:30;;;;;;;11.60;7.20;;;;;;;-8.15;62.38;100377.77;102625;1295;600254;-26
2023/02/10 04:33:59;;;;;;;6.90;5.60;;;;;;;-8.33;62.55;100370.73;104887;1266;61954;-26
2023/02/10 04:36:29;;;;;;;8.90;6.10;;;;;;;-8.13;62.71;100370.05;104890;1270;61485;-26
2023/02/10 04:38:57;;;;;;;14.20;7.90;;;;;;;-7.22;60.65;100369.80;105541;1263;73790;-25
2023/02/10 04:41:26;;;;;;;12.00;6.20;;;;;;;-6.92;59.57;100369.48;105588;1261;75791;-26
2023/02/10 04:43:54;;;;;;;11.50;7.30;;;;;;;-7.08;59.21;100366.44;105558;1263;74184;-26
2023/02/10 04:46:23;;;;;;;12.40;8.10;;;;;;;-7.41;59.61;100365.70;104249;1260;61131;-26
2023/02/10 04:48:56;;;;;;;10.80;6.50;;;;;;;-7.75;60.12;100360.17;105311;1259;61664;-25
2023/02/10 04:51:25;;;;;;;11.40;5.00;;;;;;;-8.14;61.56;100355.05;105369;1258;73594;-26
2023/02/10 04:53:54;;;;;;;11.00;7.50;;;;;;;-8.36;62.22;100350.30;105282;1257;75832;-26
2023/02/10 04:56:22;;;;;;;14.20;7.30;;;;;;;-8.57;63.07;100349.80;105456;1257;73763;-26
2023/02/10 04:58:51;;;;;;;12.30;6.60;;;;;;;-8.56;63.32;100348.79;105626;1260;62922;-26
2023/02/10 05:01:20;;;;;;;13.00;7.00;;;;;;;-7.73;61.50;100349.05;105693;1260;61827;-26
2023/02/10 05:03:48;;;;;;;7.00;4.00;;;;;;;-7.39;60.21;100349.52;105612;1257;74547;-25
2023/02/10 05:06:17;;;;;;;22.30;7.00;;;;;;;-7.45;59.62;100347.58;105623;1261;76148;-26
2023/02/10 05:08:46;;;;;;;7.90;4.80;;;;;;;-7.77;60.19;100345.65;105347;1257;1003841;-26
2023/02/10 05:11:15;;;;;;;16.80;8.10;;;;;;;-8.07;61.16;100342.84;105522;1257;61657;-26
2023/02/10 05:13:44;;;;;;;14.50;8.10;;;;;;;-8.32;62.27;100336.54;105320;1260;61849;-26
2023/02/10 05:16:13;;;;;;;5.10;3.70;;;;;;;-8.53;62.52;100341.79;105232;1261;74608;-25
2023/02/10 05:18:41;;;;;;;5.60;2.60;;;;;;;-8.78;63.23;100340.52;105618;1257;74829;-25
2023/02/10 05:21:12;;;;;;;11.20;4.70;;;;;;;-8.58;63.44;100341.02;105172;1258;72918;-25
2023/02/10 05:23:40;;;;;;;7.00;4.90;;;;;;;-7.68;61.83;100348.29;105159;1257;61117;-26
2023/02/10 05:26:09;;;;;;;17.10;8.40;;;;;;;-7.37;60.06;100349.71;105518;1258;61055;-26
2023/02/10 05:28:38;;;;;;;9.50;5.20;;;;;;;-7.56;59.78;100342.04;105216;1258;74552;-26
2023/02/10 05:31:08;;;;;;;10.50;5.20;;;;;;;-7.81;60.47;100341.55;105303;1261;75789;-26
2023/02/10 05:33:37;;;;;;;10.50;7.00;;;;;;;-8.14;61.08;100335.48;105641;1261;72946;-26
2023/02/10 05:36:06;;;;;;;16.20;9.60;;;;;;;-8.41;62.01;100332.20;105285;1262;61499;-26
2023/02/10 05:38:35;;;;;;;20.90;10.40;;;;;;;-8.66;62.80;100321.21;105286;1256;61070;-26
2023/02/10 05:41:04;;;;;;;8.70;3.20;;;;;;;-8.73;62.84;100324.45;105307;1258;74566;-26
2023/02/10 05:43:32;;;;;;;10.00;4.60;;;;;;;-8.38;62.57;100336.63;105219;1260;76005;-25
2023/02/10 05:46:01;;;;;;;18.70;7.80;;;;;;;-7.50;60.95;100336.21;105444;1258;73964;-26
2023/02/10 05:48:30;;;;;;;14.30;6.80;;;;;;;-7.41;59.14;100339.02;105582;1257;61045;-26
2023/02/10 05:50:58;;;;;;;10.90;5.20;;;;;;;-7.36;58.85;100346.18;105632;1257;61893;-26
2023/02/10 05:53:27;;;;;;;9.20;6.10;;;;;;;-7.69;59.34;100342.70;105586;1261;73031;-26
2023/02/10 05:55:55;;;;;;;14.10;7.40;;;;;;;-8.13;60.73;100337.36;105617;1258;75846;-26
2023/02/10 05:58:24;;;;;;;12.90;5.70;;;;;;;-8.29;61.47;100335.75;105618;1260;73071;-25
2023/02/10 06:00:53;;;;;;;12.20;7.50;;;;;;;-8.54;61.80;100324.27;105491;1263;61898;-26
2023/02/10 06:03:22;;;;;;;7.80;4.90;;;;;;;-8.75;62.79;100322.04;105210;1260;61891;-26
2023/02/10 06:05:51;;;;;;;17.70;7.60;;;;;;;-8.32;62.77;100322.39;105433;1257;74652;-25
2023/02/10 06:08:19;;;;;;;14.00;7.20;;;;;;;-7.59;60.57;100326.98;105239;1257;75783;-26
2023/02/10 06:10:48;;;;;;;13.10;7.60;;;;;;;-7.33;59.79;100324.79;105220;1257;73962;-26
2023/02/10 06:13:16;;;;;;;13.40;5.60;;;;;;;-7.46;59.15;100321.09;105223;1258;61058;-26
2023/02/10 06:15:45;;;;;;;8.70;5.90;;;;;;;-7.70;59.66;100316.89;105205;1258;61755;-26
2023/02/10 06:18:16;;;;;;;17.10;8.40;;;;;;;-8.06;61.07;100313.69;105270;1257;74377;-26
2023/02/10 06:20:46;;;;;;;17.70;7.00;;;;;;;-8.28;61.91;100311.84;105382;1263;75848;-26
2023/02/10 06:23:14;;;;;;;10.80;7.00;;;;;;;-8.44;62.28;100308.92;105319;1261;74224;-26
2023/02/10 06:25:43;;;;;;;11.80;6.10;;;;;;;-8.68;63.37;100304.99;105413;1257;61068;-25
2023/02/10 06:28:11;;;;;;;11.80;6.60;;;;;;;-8.42;63.53;100307.59;105257;1263;61135;-26
2023/02/10 06:34:17;;;;;;;11.10;7.40;;;;;;;-6.92;59.26;100306.84;103961;1277;616793;-27
2023/02/10 06:36:44;;;;;;;9.80;4.80;;;;;;;-6.85;58.70;100315.02;105059;1264;61183;-24
2023/02/10 06:39:12;;;;;;;6.30;5.20;;;;;;;-7.26;59.21;100316.08;105249;1264;61559;-24
2023/02/10 06:41:41;;;;;;;18.00;9.00;;;;;;;-7.45;59.93;100323.78;105205;1266;73813;-25
2023/02/10 06:44:08;;;;;;;8.00;5.50;;;;;;;-7.70;60.21;100324.15;105228;1264;75712;-24
2023/02/10 06:46:37;;;;;;;13.10;6.60;;;;;;;-7.82;61.10;100323.31;103909;1260;1832959;-24
2023/02/10 06:49:05;;;;;;;12.60;7.30;;;;;;;-8.06;61.94;100324.98;105216;1260;61885;-24
2023/02/10 06:51:34;;;;;;;15.80;8.50;;;;;;;-8.20;62.57;100326.29;105257;1266;61794;-24
2023/02/10 06:54:03;;;;;;;14.80;7.00;;;;;;;-8.14;62.93;100328.39;105542;1258;73649;-24
2023/02/10 06:56:31;;;;;;;12.80;6.20;;;;;;;-8.10;63.04;100324.09;105273;1266;75802;-24
2023/02/10 06:58:58;;;;;;;5.90;4.20;;;;;;;-8.00;62.83;100322.56;105613;1257;74138;-24
2023/02/10 07:01:26;;;;;;;6.70;4.10;;;;;;;-7.99;63.01;100323.41;105511;1257;61695;-24
2023/02/10 07:03:53;;;;;;;18.00;10.60;;;;;;;-7.39;61.99;100326.21;105559;1263;61827;-24
2023/02/10 07:06:20;;;;;;;11.70;6.20;;;;;;;-6.46;59.65;100328.70;106085;1251;73513;-24
2023/02/10 07:08:50;;;;;;;15.50;6.90;;;;;;;-5.95;57.94;100326.39;106013;1251;75859;-24
2023/02/10 07:11:18;;;;;;;8.50;5.50;;;;;;;-5.84;57.22;100332.20;105994;1251;73993;-24
2023/02/10 07:13:46;;;;;;;11.20;4.60;;;;;;;-5.75;57.06;100325.31;106102;1254;61159;-27
2023/02/10 07:23:53;;;;;;;15.50;7.80;;;;;;;-5.38;56.53;100332.79;102875;1290;600182;-26
2023/02/10 07:26:22;;;;;;;7.50;4.10;;;;;;;-5.27;56.43;100333.16;105170;1270;61674;-26
2023/02/10 07:28:51;;;;;;;12.40;7.70;;;;;;;-5.18;56.02;100331.67;105210;1269;61551;-26
2023/02/10 07:31:19;;;;;;;16.60;7.40;;;;;;;-5.01;55.89;100326.99;104884;1270;73913;-26
2023/02/10 07:33:48;;;;;;;7.10;4.70;;;;;;;-4.74;55.06;100329.25;104914;1269;75828;-26
2023/02/10 07:36:16;;;;;;;15.60;7.60;;;;;;;-4.55;54.69;100326.23;104852;1270;74231;-26
2023/02/10 07:38:45;;;;;;;16.00;7.90;;;;;;;-4.35;54.10;100329.80;103521;1267;61169;-27
2023/02/10 07:41:13;;;;;;;11.30;6.50;;;;;;;-4.19;54.18;100327.77;105077;1273;61779;-26
2023/02/10 07:43:42;;;;;;;14.10;7.00;;;;;;;-3.93;53.62;100329.10;104945;1269;73959;-26
2023/02/10 07:46:14;;;;;;;14.90;8.30;;;;;;;-3.60;52.60;100327.67;104904;1269;74978;-24
2023/02/10 07:48:43;;;;;;;13.00;6.70;;;;;;;-3.40;52.14;100320.48;105098;1273;74169;-24
2023/02/10 07:51:12;;;;;;;10.60;5.90;;;;;;;-3.32;51.94;100318.41;104899;1263;61071;-25
2023/02/10 07:53:42;;;;;;;12.90;5.30;;;;;;;-3.10;51.89;100316.27;105211;1269;61671;-25
2023/02/10 07:56:10;;;;;;;6.30;4.20;;;;;;;-2.74;51.17;100307.39;105031;1269;74288;-24
2023/02/10 08:11:38;;;;;;;10.70;5.50;;;;;;;-2.04;49.43;100296.98;105198;1264;61080;-25
2023/02/10 08:14:07;;;;;;;10.60;5.50;;;;;;;-2.04;49.44;100292.89;105264;1264;74527;-26
2023/02/10 08:16:35;;;;;;;9.70;5.30;;;;;;;-2.08;48.82;100288.67;105264;1267;75876;-25
2023/02/10 08:19:05;;;;;;;7.90;4.80;;;;;;;-2.13;49.26;100291.10;104861;1269;72861;-25
2023/02/10 08:21:34;;;;;;;8.90;5.30;;;;;;;-1.95;49.00;100291.45;104962;1269;61073;-26
2023/02/10 08:24:03;;;;;;;9.00;5.90;;;;;;;-1.86;48.81;100299.70;104852;1279;61910;-25
2023/02/10 08:26:33;;;;;;;11.20;4.50;;;;;;;-1.83;48.41;100294.21;105096;1271;73303;-25
2023/02/10 08:29:01;;;;;;;8.00;4.90;;;;;;;-1.74;48.42;100293.61;105063;1269;74706;-25
2023/02/10 08:31:30;;;;;;;9.40;5.30;;;;;;;-1.70;48.97;100293.58;105119;1264;74398;-25
2023/02/10 08:33:59;;;;;;;10.50;4.50;;;;;;;-1.51;48.27;100287.58;104947;1279;61194;-25
2023/02/10 08:36:28;;;;;;;7.40;4.40;;;;;;;-1.25;47.99;100281.63;104959;1270;61959;-25
2023/02/10 08:38:57;;;;;;;8.60;5.70;;;;;;;-1.10;47.44;100277.50;105152;1264;74600;-25
2023/02/10 08:41:29;;;;;;;9.60;5.40;;;;;;;-1.04;47.97;100274.71;104788;1272;75892;-25
2023/02/10 08:43:59;;;;;;;11.00;6.80;;;;;;;-0.79;47.56;100276.73;104944;1270;74123;-25
2023/02/10 08:46:27;;;;;;;11.80;6.00;;;;;;;-0.50;47.37;100272.53;105133;1264;61138;-25
2023/02/10 08:49:00;;;;;;;8.30;4.60;;;;;;;-0.26;46.41;100267.02;105210;1267;61189;-25
2023/02/10 08:51:30;;;;;;;8.30;5.00;;;;;;;-0.10;46.61;100263.33;105141;1267;74615;-25
2023/02/10 08:54:03;;;;;;;9.70;5.00;;;;;;;-0.20;46.27;100260.94;105091;1269;75577;-25
2023/02/10 08:56:32;;;;;;;8.90;4.80;;;;;;;-0.28;46.32;100260.06;104886;1270;73900;-25
2023/02/10 08:59:01;;;;;;;8.80;5.70;;;;;;;0.12;46.83;100264.80;104945;1265;61156;-24
2023/02/10 09:01:30;;;;;;;10.20;4.90;;;;;;;0.60;45.54;100261.30;104902;1269;61661;-24
2023/02/10 09:03:59;;;;;;;7.50;4.90;;;;;;;0.82;44.98;100256.40;105057;1267;74711;-25
2023/02/10 09:06:38;;;;;;;9.40;4.80;;;;;;;0.67;44.69;100247.13;105145;1267;74565;-25
2023/02/10 09:09:08;;;;;;;8.30;4.30;;;;;;;0.39;44.76;100251.46;104853;1270;74151;-25
2023/02/10 09:11:37;;;;;;;9.50;5.20;;;;;;;0.08;44.95;100252.06;104770;1270;61232;-25
2023/02/10 09:14:06;;;;;;;7.60;4.20;;;;;;;-0.22;46.19;100249.38;104862;1269;62121;-25
2023/02/10 09:16:35;;;;;;;7.70;5.00;;;;;;;-0.38;46.72;100250.31;105146;1264;74306;-25
2023/02/10 09:19:08;;;;;;;8.30;4.20;;;;;;;-0.30;47.50;100247.97;104840;1264;75830;-25
2023/02/10 09:21:37;;;;;;;6.40;3.60;;;;;;;0.05;46.65;100243.41;105059;1267;73844;-26
2023/02/10 09:24:16;;;;;;;12.60;4.20;;;;;;;0.47;45.99;100234.56;104827;1270;61747;-25
2023/02/10 09:26:45;;;;;;;7.50;4.80;;;;;;;0.72;45.10;100231.81;104914;1269;61004;-25
2023/02/10 09:29:13;;;;;;;8.70;4.30;;;;;;;0.97;45.29;100241.19;104967;1269;73473;-25
2023/02/10 09:31:43;;;;;;;6.10;3.40;;;;;;;1.13;44.32;100228.31;104995;1270;75821;-25
2023/02/10 09:34:12;;;;;;;7.10;4.10;;;;;;;1.17;43.86;100232.34;104924;1268;74793;-25
2023/02/10 09:36:41;;;;;;;7.00;3.90;;;;;;;1.24;44.16;100235.42;105065;1263;61637;-25
2023/02/10 09:39:10;;;;;;;8.10;2.80;;;;;;;1.40;43.41;100235.36;104940;1267;61837;-25
2023/02/10 09:41:48;;;;;;;8.40;4.50;;;;;;;1.58;43.26;100229.64;105255;1264;74295;-25
2023/02/10 09:44:22;;;;;;;6.80;4.00;;;;;;;1.72;43.14;100222.78;104789;1264;75814;-25
2023/02/10 09:46:57;;;;;;;7.00;4.20;;;;;;;1.67;43.19;100236.27;104716;1273;74217;-25
2023/02/10 09:49:43;;;;;;;7.70;4.00;;;;;;;1.42;43.53;100227.11;104762;1269;61266;-25
2023/02/10 09:52:21;;;;;;;7.20;4.30;;;;;;;1.39;44.08;100232.48;104892;1269;62699;-25
2023/02/10 09:54:51;;;;;;;8.30;4.50;;;;;;;1.48;44.52;100233.84;104993;1270;74644;-25
2023/02/10 09:57:32;;;;;;;6.30;4.00;;;;;;;1.69;43.59;100226.29;105218;1264;73969;-25
2023/02/10 10:00:02;;;;;;;6.10;4.30;;;;;;;1.80;43.38;100220.66;104862;1270;73201;-26
2023/02/10 10:02:35;;;;;;;8.60;4.50;;;;;;;1.89;43.90;100220.77;104729;1264;61266;-26
2023/02/10 10:05:15;;;;;;;11.60;4.90;;;;;;;1.90;43.08;100206.90;104878;1264;60998;-25
2023/02/10 10:07:45;;;;;;;8.30;4.10;;;;;;;1.90;43.31;100207.91;104603;1270;73488;-25
2023/02/10 10:10:35;;;;;;;6.90;4.50;;;;;;;1.72;44.16;100201.89;104682;1268;76477;-26
2023/02/10 10:13:04;;;;;;;7.40;4.70;;;;;;;1.36;43.96;100195.61;104935;1264;74121;-26
2023/02/10 10:15:38;;;;;;;9.50;4.90;;;;;;;1.48;44.39;100198.91;105054;1260;61046;-25
2023/02/10 10:18:22;;;;;;;9.50;5.10;;;;;;;1.67;44.14;100198.77;105168;1267;61925;-26
2023/02/10 10:20:56;;;;;;;6.90;4.40;;;;;;;1.90;43.93;100197.48;105234;1260;74340;-25
2023/02/10 10:23:42;;;;;;;8.80;4.70;;;;;;;2.06;43.18;100197.73;105157;1264;74735;-26
2023/02/10 10:26:29;;;;;;;7.10;4.20;;;;;;;2.22;42.76;100190.42;105614;1254;73167;-26
2023/02/10 10:29:11;;;;;;;;;;;;;;;2.40;43.13;100200.04;105760;1254;61066;-26
2023/02/10 10:31:41;;;;;;;6.80;3.50;;;;;;;2.52;42.59;100195.36;105624;1256;61411;-27
2023/02/10 10:34:13;;;;;;;10.20;5.10;;;;;;;2.67;42.79;100199.05;105605;1260;74322;-26
2023/02/10 10:36:50;;;;;;;9.20;4.10;;;;;;;2.79;42.27;100196.28;105573;1260;75556;-24
2023/02/10 10:39:36;;;;;;;7.40;4.70;;;;;;;2.87;42.46;100198.78;105555;1258;73197;-26
2023/02/10 10:42:39;;;;;;;9.70;5.20;;;;;;;2.96;41.66;100189.61;105682;1254;61205;-24
2023/02/10 10:45:13;;;;;;;6.90;4.20;;;;;;;3.00;41.77;100185.88;105747;1260;61617;-26
2023/02/10 10:48:15;;;;;;;7.20;4.70;;;;;;;3.17;42.04;100191.67;105731;1254;74576;-24
2023/02/10 10:50:45;;;;;;;7.00;4.50;;;;;;;3.26;41.85;100188.27;105742;1260;75850;-24
2023/02/10 10:53:20;;;;;;;9.40;6.10;;;;;;;3.14;41.44;100183.86;105876;1254;74181;-24
2023/02/10 10:55:53;;;;;;;6.60;4.30;;;;;;;3.06;41.35;100176.08;105670;1260;61109;-24
2023/02/10 10:58:25;;;;;;;8.20;4.20;;;;;;;3.07;41.74;100172.08;105704;1254;61145;-24
2023/02/10 11:00:56;;;;;;;11.50;6.10;;;;;;;3.13;41.60;100174.12;105720;1255;73296;-24
2023/02/10 11:03:25;;;;;;;9.20;5.20;;;;;;;3.13;41.39;100171.55;105699;1257;75869;-24
2023/02/10 11:06:15;;;;;;;8.80;4.50;;;;;;;3.07;41.21;100163.48;105892;1256;74082;-24
2023/02/10 11:08:51;;;;;;;9.30;5.20;;;;;;;3.01;42.36;100163.03;105704;1254;61136;-24
2023/02/10 11:11:34;;;;;;;8.70;4.30;;;;;;;3.14;42.23;100153.84;105694;1257;61167;-25
2023/02/10 11:14:26;;;;;;;9.50;6.10;;;;;;;3.19;42.25;100150.25;105727;1257;73337;-25
2023/02/10 11:17:00;;;;;;;10.40;5.30;;;;;;;3.25;41.93;100146.45;105743;1255;75866;-25
2023/02/10 11:19:34;;;;;;;9.50;5.50;;;;;;;3.19;42.07;100140.63;105702;1254;74105;-25
2023/02/10 11:22:19;;;;;;;9.20;5.70;;;;;;;3.21;42.76;100144.70;105637;1254;61062;-25
2023/02/10 11:24:58;;;;;;;9.60;4.50;;;;;;;3.29;42.63;100139.13;105679;1254;62002;-25
2023/02/10 11:27:27;;;;;;;6.30;3.50;;;;;;;3.36;43.07;100142.11;105660;1255;74547;-24
2023/02/10 11:29:57;;;;;;;7.00;4.30;;;;;;;3.40;42.94;100132.04;105510;1254;75798;-25
2023/02/10 11:32:27;;;;;;;8.80;5.00;;;;;;;3.33;42.66;100137.10;105336;1260;74013;-24
2023/02/10 11:34:57;;;;;;;7.20;4.10;;;;;;;3.31;43.89;100132.35;105566;1257;61103;-25
2023/02/10 11:37:31;;;;;;;7.80;4.00;;;;;;;3.22;44.62;100133.48;105281;1260;61805;-25
2023/02/10 11:40:05;;;;;;;11.60;6.20;;;;;;;3.13;44.19;100124.70;105432;1254;74729;-26
2023/02/10 11:42:35;;;;;;;7.40;4.90;;;;;;;3.18;44.32;100128.67;105503;1254;75892;-27
2023/02/10 11:45:26;;;;;;;9.10;6.10;;;;;;;3.25;43.31;100128.23;105738;1254;74369;-24
2023/02/10 11:48:04;;;;;;;9.30;5.40;;;;;;;3.39;42.56;100125.21;105686;1254;61201;-24
2023/02/10 11:50:37;;;;;;;9.80;5.50;;;;;;;3.49;43.28;100115.92;105674;1254;61157;-25
2023/02/10 11:53:25;;;;;;;8.30;5.80;;;;;;;3.61;42.40;100115.52;105712;1254;75332;-24
2023/02/10 11:55:59;;;;;;;11.10;6.50;;;;;;;3.57;41.47;100105.70;105419;1254;75617;-24
2023/02/10 11:59:01;;;;;;;7.50;4.40;;;;;;;3.55;42.87;100109.19;105484;1254;73174;-24
2023/02/10 12:01:37;;;;;;;11.00;5.30;;;;;;;3.51;43.99;100109.02;105545;1254;61061;-24
2023/02/10 12:04:41;;;;;;;8.50;5.00;;;;;;;3.36;43.77;100107.45;105536;1260;61845;-25
2023/02/10 12:07:21;;;;;;;9.40;5.40;;;;;;;3.36;44.09;100099.55;105540;1254;75506;-26
2023/02/10 12:09:55;;;;;;;10.60;6.60;;;;;;;3.44;42.18;100093.09;105395;1254;75826;-26
2023/02/10 12:12:25;;;;;;;;;;;;;;;3.50;41.85;100098.05;105584;1254;74179;-25
2023/02/10 12:15:59;;;;;;;9.30;5.10;;;;;;;3.57;42.36;100098.83;105641;1257;60981;-25